Time;durP1;ratioP1;P1;durP2;ratioP2;P2;SDS_P1;SDS_P2;PMS_P1;PMS_P2;Temp;Humidity;BMP_temperature;BMP_pressure;BME280_temperature;BME280_humidity;BME280_pressure;Samples;Min_cycle;Max_cycle;Signal;HPM_P1;HPM_P2
2023/05/13 00:00:28;;;;;;;7.70;4.88;;;11.60;99.90;;;;;;5013967;28;20034;-55
2023/05/13 00:02:54;;;;;;;5.13;4.60;;;11.70;99.90;;;;;;4999369;28;20029;-53
2023/05/13 00:05:20;;;;;;;7.15;4.25;;;11.60;99.90;;;;;;4995030;28;20045;-50
2023/05/13 00:07:45;;;;;;;5.40;4.80;;;11.60;99.90;;;;;;5019979;28;20040;-55
2023/05/13 00:10:11;;;;;;;5.43;4.93;;;11.60;99.90;;;;;;5014528;28;20168;-55
2023/05/13 00:12:36;;;;;;;6.00;4.70;;;11.50;99.90;;;;;;5014861;28;20256;-54
2023/05/13 00:15:02;;;;;;;6.53;4.72;;;11.50;99.90;;;;;;5003722;28;20641;-52
2023/05/13 00:17:28;;;;;;;8.52;5.10;;;11.60;99.90;;;;;;5017582;28;20588;-51
2023/05/13 00:19:55;;;;;;;6.13;4.50;;;11.50;99.90;;;;;;5021605;28;20026;-52
2023/05/13 00:22:20;;;;;;;5.00;4.40;;;11.50;99.90;;;;;;5015601;28;20029;-55
2023/05/13 00:24:46;;;;;;;4.88;4.38;;;11.50;99.90;;;;;;5024879;28;20577;-55
2023/05/13 00:27:11;;;;;;;6.65;5.25;;;11.40;99.90;;;;;;5011127;28;20492;-55
2023/05/13 00:29:37;;;;;;;6.47;5.05;;;11.30;99.90;;;;;;5023208;28;20079;-53
2023/05/13 00:32:02;;;;;;;6.57;4.38;;;11.30;99.90;;;;;;5017170;28;20042;-51
2023/05/13 00:34:28;;;;;;;7.20;4.30;;;11.30;99.90;;;;;;5017621;28;20496;-55
2023/05/13 00:36:53;;;;;;;5.85;4.22;;;11.30;99.90;;;;;;5002822;28;20034;-54
2023/05/13 00:39:19;;;;;;;5.28;4.40;;;11.30;99.90;;;;;;5019996;28;20555;-55
2023/05/13 00:41:45;;;;;;;4.70;4.30;;;11.20;99.90;;;;;;5018704;28;20171;-55
2023/05/13 00:44:10;;;;;;;5.82;5.13;;;11.20;99.90;;;;;;5016598;28;20480;-54
2023/05/13 00:46:36;;;;;;;6.55;5.40;;;11.20;99.90;;;;;;5013302;28;20404;-55
2023/05/13 00:49:03;;;;;;;5.68;4.55;;;11.20;99.90;;;;;;5017281;28;20025;-53
2023/05/13 00:51:31;;;;;;;6.63;4.57;;;11.10;99.90;;;;;;5020687;28;20025;-52
2023/05/13 00:53:58;;;;;;;5.45;4.70;;;11.00;99.90;;;;;;5023719;28;20156;-51
2023/05/13 00:56:25;;;;;;;5.93;4.75;;;11.00;99.90;;;;;;5017252;28;20060;-57
2023/05/13 00:58:50;;;;;;;5.38;4.85;;;10.90;99.90;;;;;;5023174;28;20025;-51
2023/05/13 01:01:27;;;;;;;7.45;4.47;;;10.90;99.90;;;;;;5018899;28;20109;-52
2023/05/13 01:04:07;;;;;;;5.15;4.55;;;10.90;99.90;;;;;;5011201;28;20071;-53
2023/05/13 01:06:42;;;;;;;8.88;5.35;;;10.90;99.90;;;;;;5020111;28;20069;-54
2023/05/13 01:09:36;;;;;;;7.75;5.25;;;10.90;99.90;;;;;;5023052;28;20282;-55
2023/05/13 01:12:08;;;;;;;6.57;5.03;;;10.80;99.90;;;;;;5005259;28;20137;-51
2023/05/13 01:14:39;;;;;;;5.45;4.47;;;10.70;99.90;;;;;;5004784;28;20180;-55
2023/05/13 01:17:19;;;;;;;6.10;4.80;;;10.70;99.90;;;;;;5013980;28;20454;-54
2023/05/13 01:19:50;;;;;;;5.90;5.32;;;10.70;99.90;;;;;;5013270;28;20041;-56
2023/05/13 01:22:15;;;;;;;6.93;5.70;;;10.70;99.90;;;;;;5023060;28;20060;-52
2023/05/13 01:24:41;;;;;;;6.32;5.72;;;10.60;99.90;;;;;;5014019;28;20057;-55
2023/05/13 01:27:07;;;;;;;6.00;5.40;;;10.60;99.90;;;;;;5015986;28;20544;-53
2023/05/13 01:29:32;;;;;;;10.38;5.32;;;10.60;99.90;;;;;;5022025;28;20504;-55
2023/05/13 01:31:59;;;;;;;8.45;5.78;;;10.50;99.90;;;;;;5011197;28;20045;-51
2023/05/13 01:34:26;;;;;;;5.63;5.10;;;10.50;99.90;;;;;;5021885;28;20481;-55
2023/05/13 01:36:52;;;;;;;7.18;5.60;;;10.50;99.90;;;;;;5016822;28;20022;-53
2023/05/13 01:39:18;;;;;;;5.70;5.13;;;10.50;99.90;;;;;;5015086;28;20031;-54
2023/05/13 01:41:44;;;;;;;7.78;5.95;;;10.50;99.90;;;;;;5016080;28;20554;-53
2023/05/13 01:44:10;;;;;;;8.70;6.22;;;10.50;99.90;;;;;;5008907;28;20038;-51
2023/05/13 01:46:39;;;;;;;7.35;6.13;;;10.50;99.90;;;;;;5016403;28;20026;-53
2023/05/13 01:49:06;;;;;;;6.72;6.03;;;10.50;99.90;;;;;;5018258;28;20147;-55
2023/05/13 01:51:32;;;;;;;9.82;5.88;;;10.40;99.90;;;;;;5016670;28;20022;-53
2023/05/13 01:53:57;;;;;;;6.88;6.10;;;10.40;99.90;;;;;;5017476;28;20096;-56
2023/05/13 01:56:23;;;;;;;9.88;6.05;;;10.30;99.90;;;;;;5051040;23;20045;-59
2023/05/13 01:58:48;;;;;;;6.53;5.88;;;10.30;99.90;;;;;;5046440;28;20017;-60
2023/05/13 02:01:14;;;;;;;9.40;6.32;;;10.30;99.90;;;;;;5045715;28;20029;-59
2023/05/13 02:03:39;;;;;;;7.55;6.38;;;10.20;99.90;;;;;;5047710;28;20116;-60
2023/05/13 02:06:05;;;;;;;8.30;6.53;;;10.20;99.90;;;;;;5037805;28;20524;-59
2023/05/13 02:08:30;;;;;;;9.10;6.72;;;10.10;99.90;;;;;;5030198;28;20029;-60
2023/05/13 02:10:58;;;;;;;8.65;6.65;;;10.10;99.90;;;;;;5030889;28;20467;-61
2023/05/13 02:13:25;;;;;;;9.52;6.57;;;10.10;99.90;;;;;;5028075;28;20021;-61
2023/05/13 02:15:51;;;;;;;7.88;7.10;;;10.10;99.90;;;;;;5028994;28;20514;-59
2023/05/13 02:18:17;;;;;;;9.38;7.32;;;10.00;99.90;;;;;;5019457;28;20444;-61
2023/05/13 02:20:43;;;;;;;12.82;7.90;;;10.00;99.90;;;;;;5036574;28;20155;-60
2023/05/13 02:23:09;;;;;;;12.32;7.60;;;9.90;99.90;;;;;;5028980;28;20026;-59
2023/05/13 02:25:35;;;;;;;8.80;7.90;;;9.90;99.90;;;;;;5029169;28;20557;-60
2023/05/13 02:28:01;;;;;;;8.40;6.80;;;9.90;99.90;;;;;;5025628;28;20113;-60
2023/05/13 02:30:26;;;;;;;7.35;6.65;;;9.90;99.90;;;;;;5026091;28;20488;-60
2023/05/13 02:32:56;;;;;;;10.13;7.32;;;9.90;99.90;;;;;;5026989;28;20038;-58
2023/05/13 02:35:24;;;;;;;8.48;7.47;;;9.90;99.90;;;;;;5025953;28;20013;-60
2023/05/13 02:37:49;;;;;;;9.68;8.18;;;9.80;99.90;;;;;;5026771;28;21706;-60
2023/05/13 02:40:15;;;;;;;8.48;7.63;;;9.80;99.90;;;;;;5026734;28;20388;-60
2023/05/13 02:42:42;;;;;;;8.05;7.32;;;9.80;99.90;;;;;;5030738;28;20064;-61
2023/05/13 02:45:08;;;;;;;8.10;7.30;;;9.80;99.90;;;;;;5028377;28;20025;-60
2023/05/13 02:47:34;;;;;;;8.70;7.57;;;9.70;99.90;;;;;;5031376;28;20495;-60
2023/05/13 02:50:00;;;;;;;11.02;7.90;;;9.60;99.90;;;;;;5032413;28;20033;-60
2023/05/13 02:52:25;;;;;;;9.50;7.63;;;9.60;99.90;;;;;;5027048;28;20017;-60
2023/05/13 02:54:51;;;;;;;9.38;7.93;;;9.60;99.90;;;;;;5029659;28;20148;-57
2023/05/13 02:57:16;;;;;;;11.50;7.60;;;9.60;99.90;;;;;;5026996;28;20108;-60
2023/05/13 02:59:42;;;;;;;11.40;8.55;;;9.60;99.90;;;;;;5026982;28;20028;-58
2023/05/13 03:02:07;;;;;;;11.90;7.55;;;9.60;99.90;;;;;;5026013;28;20043;-60
2023/05/13 03:04:33;;;;;;;8.57;7.78;;;9.60;99.90;;;;;;5027239;28;20101;-60
2023/05/13 03:06:58;;;;;;;9.65;8.13;;;9.60;99.90;;;;;;5027570;28;20589;-60
2023/05/13 03:09:24;;;;;;;9.25;8.32;;;9.50;99.90;;;;;;5028995;28;20033;-59
2023/05/13 03:11:50;;;;;;;9.02;8.10;;;9.50;99.90;;;;;;5030783;28;20030;-60
2023/05/13 03:14:15;;;;;;;11.02;9.48;;;9.50;99.90;;;;;;5028137;28;20041;-59
2023/05/13 03:16:41;;;;;;;8.98;8.05;;;9.50;99.90;;;;;;5026051;28;20028;-59
2023/05/13 03:19:06;;;;;;;13.30;8.82;;;9.40;99.90;;;;;;5029033;28;20071;-60
2023/05/13 03:21:32;;;;;;;17.98;8.57;;;9.40;99.90;;;;;;5027747;28;20025;-61
2023/05/13 03:23:57;;;;;;;11.10;9.43;;;9.40;99.90;;;;;;5028007;28;20053;-61
2023/05/13 03:26:23;;;;;;;12.77;9.20;;;9.30;99.90;;;;;;5032852;28;20495;-59
2023/05/13 03:28:48;;;;;;;12.50;10.18;;;9.30;99.90;;;;;;5026048;28;20499;-59
2023/05/13 03:31:14;;;;;;;11.38;10.20;;;9.30;99.90;;;;;;5025560;28;20029;-60
2023/05/13 03:33:39;;;;;;;10.80;9.60;;;9.20;99.90;;;;;;5027808;28;20036;-59
2023/05/13 03:36:08;;;;;;;12.68;9.82;;;9.20;99.90;;;;;;5025885;28;20555;-60
2023/05/13 03:38:33;;;;;;;9.68;8.73;;;9.30;99.90;;;;;;5018741;28;20033;-61
2023/05/13 03:40:59;;;;;;;11.98;9.45;;;9.30;99.90;;;;;;5025355;28;20034;-61
2023/05/13 03:43:25;;;;;;;12.40;10.07;;;9.30;99.90;;;;;;5034067;28;20032;-61
2023/05/13 03:45:51;;;;;;;12.15;9.80;;;9.30;99.90;;;;;;5031080;28;20017;-61
2023/05/13 03:48:16;;;;;;;12.05;10.25;;;9.20;99.90;;;;;;5026689;28;20075;-61
2023/05/13 03:50:42;;;;;;;11.13;9.93;;;9.20;99.90;;;;;;5029533;28;20033;-61
2023/05/13 03:53:09;;;;;;;12.52;10.07;;;9.30;99.90;;;;;;5026251;28;20033;-61
2023/05/13 03:55:35;;;;;;;13.60;10.55;;;9.20;99.90;;;;;;5025652;28;20040;-61
2023/05/13 03:58:11;;;;;;;12.80;10.95;;;9.10;99.90;;;;;;5025342;28;20025;-61
2023/05/13 04:00:36;;;;;;;13.63;11.07;;;9.20;99.90;;;;;;5025619;28;20034;-59
2023/05/13 04:03:02;;;;;;;13.20;11.85;;;9.10;99.90;;;;;;5025797;28;20075;-60
2023/05/13 04:05:27;;;;;;;13.10;11.07;;;9.10;99.90;;;;;;5025504;28;20084;-60
2023/05/13 04:07:53;;;;;;;14.30;12.80;;;9.00;99.90;;;;;;5028664;28;20030;-60
2023/05/13 04:10:18;;;;;;;13.02;11.68;;;9.00;99.90;;;;;;5025474;28;20033;-61
2023/05/13 04:12:44;;;;;;;13.55;12.23;;;9.00;99.90;;;;;;5025777;28;20025;-60
2023/05/13 04:15:09;;;;;;;14.13;12.13;;;9.10;99.90;;;;;;5025805;28;20491;-59
2023/05/13 04:17:35;;;;;;;15.95;11.85;;;9.10;99.90;;;;;;5025414;28;20498;-62
2023/05/13 04:20:01;;;;;;;16.63;12.38;;;9.10;99.90;;;;;;5025515;28;20029;-61
2023/05/13 04:22:26;;;;;;;13.65;10.77;;;9.10;99.90;;;;;;5026635;28;20033;-60
2023/05/13 04:24:55;;;;;;;14.50;11.93;;;9.20;99.90;;;;;;5030612;28;20032;-61
2023/05/13 04:27:22;;;;;;;13.73;12.43;;;9.20;99.90;;;;;;5024571;28;20049;-60
2023/05/13 04:29:48;;;;;;;19.30;13.40;;;9.20;99.90;;;;;;5031118;28;20026;-61
2023/05/13 04:32:16;;;;;;;14.85;12.68;;;9.20;99.90;;;;;;5025839;28;20034;-62
2023/05/13 04:34:42;;;;;;;17.83;12.75;;;9.30;99.90;;;;;;5024079;28;20029;-61
2023/05/13 04:37:08;;;;;;;14.25;11.25;;;9.30;99.90;;;;;;5027453;28;20033;-61
2023/05/13 04:39:33;;;;;;;14.75;11.48;;;9.30;99.90;;;;;;5025337;28;20057;-61
2023/05/13 04:41:59;;;;;;;17.45;12.70;;;9.40;99.90;;;;;;5029821;28;20026;-59
2023/05/13 04:44:24;;;;;;;16.50;13.55;;;9.40;99.90;;;;;;5026442;28;20554;-61
2023/05/13 04:46:50;;;;;;;14.05;12.55;;;9.40;99.90;;;;;;5025102;28;20052;-61
2023/05/13 04:49:15;;;;;;;13.27;11.95;;;9.50;99.90;;;;;;5027694;28;20104;-60
2023/05/13 04:51:41;;;;;;;14.98;11.82;;;9.50;99.90;;;;;;5028842;28;20045;-61
2023/05/13 04:54:06;;;;;;;14.48;12.20;;;9.60;99.90;;;;;;5035939;28;20134;-61
2023/05/13 04:56:32;;;;;;;13.35;12.13;;;9.60;99.90;;;;;;5039976;28;20654;-61
2023/05/13 04:58:58;;;;;;;13.57;12.18;;;9.70;99.90;;;;;;5032616;28;20028;-61
2023/05/13 05:01:23;;;;;;;16.48;12.85;;;9.70;99.90;;;;;;5027744;28;20033;-60
2023/05/13 05:03:49;;;;;;;13.80;12.38;;;9.70;99.90;;;;;;5028720;28;20244;-61
2023/05/13 05:06:15;;;;;;;13.70;12.10;;;9.70;99.90;;;;;;5029065;28;20091;-60
2023/05/13 05:08:40;;;;;;;14.40;11.95;;;9.80;99.90;;;;;;5028382;28;20083;-61
2023/05/13 05:11:06;;;;;;;15.57;13.20;;;9.90;99.90;;;;;;5029243;28;20476;-60
2023/05/13 05:13:31;;;;;;;16.63;11.75;;;9.90;99.90;;;;;;5028339;28;20029;-61
2023/05/13 05:15:57;;;;;;;13.68;11.85;;;10.00;99.90;;;;;;5028735;28;20505;-61
2023/05/13 05:18:22;;;;;;;15.77;13.05;;;10.10;99.90;;;;;;5027842;28;20581;-60
2023/05/13 05:20:48;;;;;;;13.27;11.52;;;10.10;99.90;;;;;;5028619;28;20392;-61
2023/05/13 05:23:13;;;;;;;14.35;11.18;;;10.20;99.90;;;;;;5028341;28;20079;-60
2023/05/13 05:25:39;;;;;;;12.05;10.65;;;10.30;99.90;;;;;;5028077;28;20090;-62
2023/05/13 05:28:05;;;;;;;12.30;10.57;;;10.30;99.90;;;;;;5033213;28;20033;-60
2023/05/13 05:30:38;;;;;;;11.95;10.75;;;10.40;99.90;;;;;;5028249;28;20045;-61
2023/05/13 05:33:05;;;;;;;13.07;11.35;;;10.40;99.90;;;;;;5027464;28;20025;-60
2023/05/13 05:35:32;;;;;;;13.95;10.15;;;10.50;99.90;;;;;;5028368;28;20313;-60
2023/05/13 05:37:58;;;;;;;13.23;10.40;;;10.60;99.90;;;;;;5026509;28;20048;-61
2023/05/13 05:40:23;;;;;;;14.57;11.02;;;10.60;99.90;;;;;;5033758;28;20113;-60
2023/05/13 05:42:49;;;;;;;11.73;10.00;;;10.70;99.90;;;;;;5027813;28;20045;-60
2023/05/13 05:45:14;;;;;;;13.93;10.88;;;10.80;99.90;;;;;;5028355;28;20037;-61
2023/05/13 05:47:40;;;;;;;11.40;9.45;;;10.90;99.90;;;;;;5030545;28;20025;-62
2023/05/13 05:50:06;;;;;;;12.40;10.43;;;11.00;99.90;;;;;;5036958;28;20083;-62
2023/05/13 05:52:32;;;;;;;13.52;10.02;;;11.10;99.90;;;;;;5029445;28;20033;-61
2023/05/13 05:54:57;;;;;;;10.00;9.00;;;11.20;99.90;;;;;;5028771;28;20022;-61
2023/05/13 05:57:23;;;;;;;10.57;9.00;;;11.30;99.90;;;;;;5036767;28;20385;-61
2023/05/13 05:59:49;;;;;;;11.75;9.73;;;11.50;99.90;;;;;;5026722;28;20023;-61
2023/05/13 06:02:15;;;;;;;10.23;9.10;;;11.60;99.90;;;;;;5027244;28;20291;-60
2023/05/13 06:04:41;;;;;;;12.75;9.05;;;11.80;99.90;;;;;;5027781;28;20494;-61
2023/05/13 06:07:07;;;;;;;10.00;8.85;;;11.90;99.90;;;;;;5027592;28;20040;-61
2023/05/13 06:09:32;;;;;;;9.57;7.72;;;12.10;99.90;;;;;;5027916;28;20029;-60
2023/05/13 06:11:58;;;;;;;10.82;8.90;;;12.30;99.90;;;;;;5027099;28;20079;-60
2023/05/13 06:14:23;;;;;;;10.05;8.50;;;12.50;99.90;;;;;;5027515;28;20040;-61
2023/05/13 06:16:49;;;;;;;9.60;8.00;;;12.70;99.90;;;;;;5027579;28;20034;-62
2023/05/13 06:19:14;;;;;;;9.45;8.13;;;12.90;99.90;;;;;;5027735;28;20018;-60
2023/05/13 06:21:41;;;;;;;10.43;8.23;;;13.00;99.90;;;;;;5026021;28;20647;-59
2023/05/13 06:24:08;;;;;;;9.60;7.18;;;13.20;99.90;;;;;;5027368;28;20072;-61
2023/05/13 06:26:33;;;;;;;8.00;7.18;;;13.40;99.90;;;;;;5026705;28;20101;-61
2023/05/13 06:28:59;;;;;;;14.00;7.53;;;13.70;99.90;;;;;;5028653;28;20512;-60
2023/05/13 06:31:25;;;;;;;9.95;7.55;;;13.90;99.90;;;;;;5026477;28;20116;-58
2023/05/13 06:33:51;;;;;;;9.20;6.88;;;14.00;99.90;;;;;;5026299;28;20041;-58
2023/05/13 06:36:16;;;;;;;8.07;7.28;;;14.20;99.90;;;;;;5026765;28;20402;-60
2023/05/13 06:38:42;;;;;;;7.97;6.85;;;14.40;99.90;;;;;;5027296;28;20068;-61
2023/05/13 06:41:07;;;;;;;9.48;6.40;;;14.60;99.90;;;;;;5034225;28;20025;-61
2023/05/13 06:43:33;;;;;;;10.70;7.45;;;14.80;99.90;;;;;;5027437;28;20022;-61
2023/05/13 06:45:58;;;;;;;9.43;6.13;;;15.00;99.90;;;;;;5033750;28;20495;-61
2023/05/13 06:48:24;;;;;;;9.00;6.38;;;15.20;99.90;;;;;;5031683;28;20483;-61
2023/05/13 06:50:50;;;;;;;5.90;5.40;;;15.40;99.90;;;;;;5027001;28;20030;-61
2023/05/13 06:53:15;;;;;;;7.57;6.85;;;15.60;99.90;;;;;;5028207;28;20029;-60
2023/05/13 06:55:41;;;;;;;8.48;6.88;;;15.60;99.90;;;;;;5025896;28;20075;-60
2023/05/13 06:58:09;;;;;;;7.93;5.70;;;15.70;99.90;;;;;;5026554;28;20028;-61
2023/05/13 07:00:39;;;;;;;6.95;5.43;;;15.80;99.90;;;;;;5025999;28;20510;-61
2023/05/13 07:03:08;;;;;;;10.15;6.22;;;16.10;99.90;;;;;;5026588;28;20147;-61
2023/05/13 07:05:34;;;;;;;10.98;5.70;;;16.30;99.90;;;;;;5026740;28;20032;-60
2023/05/13 07:08:05;;;;;;;5.78;5.22;;;16.60;99.90;;;;;;5026602;28;20339;-62
2023/05/13 07:10:34;;;;;;;7.60;5.38;;;16.70;99.90;;;;;;5031306;28;20482;-61
2023/05/13 07:13:01;;;;;;;9.10;5.70;;;16.80;99.90;;;;;;5028511;28;20040;-60
2023/05/13 07:15:27;;;;;;;6.22;5.63;;;17.10;99.90;;;;;;5025902;28;20017;-61
2023/05/13 07:17:52;;;;;;;7.32;5.22;;;17.20;99.90;;;;;;5024914;28;20360;-61
2023/05/13 07:20:20;;;;;;;6.95;5.03;;;17.40;99.90;;;;;;5026022;28;20164;-61
2023/05/13 07:22:47;;;;;;;7.85;5.47;;;17.50;99.90;;;;;;5027234;28;20029;-61
2023/05/13 07:25:13;;;;;;;7.13;4.95;;;17.60;99.90;;;;;;5031920;28;20029;-61
2023/05/13 07:27:38;;;;;;;5.95;5.07;;;17.70;99.90;;;;;;5025799;28;20037;-60
2023/05/13 07:30:05;;;;;;;6.53;5.45;;;17.80;99.90;;;;;;5029030;28;20044;-61
2023/05/13 07:32:31;;;;;;;6.05;5.05;;;17.90;99.90;;;;;;5024827;28;20064;-59
2023/05/13 07:34:56;;;;;;;7.88;4.80;;;18.10;99.90;;;;;;5028402;28;20333;-60
2023/05/13 07:37:22;;;;;;;6.03;4.45;;;18.20;99.90;;;;;;5028908;28;20022;-62
2023/05/13 07:39:50;;;;;;;5.85;4.88;;;18.30;99.90;;;;;;5024474;28;20272;-61
2023/05/13 07:42:15;;;;;;;8.02;4.72;;;18.50;99.40;;;;;;5026763;28;20055;-59
2023/05/13 07:44:41;;;;;;;8.18;4.65;;;18.70;99.90;;;;;;5031100;28;20472;-61
2023/05/13 07:47:06;;;;;;;5.72;4.32;;;18.90;98.60;;;;;;5025274;28;20625;-60
2023/05/13 07:49:32;;;;;;;5.25;4.55;;;19.00;99.10;;;;;;5027787;28;20120;-62
2023/05/13 07:51:57;;;;;;;4.78;4.22;;;19.30;97.60;;;;;;5031913;28;20025;-62
2023/05/13 07:54:23;;;;;;;5.53;4.90;;;19.40;97.70;;;;;;5025543;28;20083;-58
2023/05/13 07:56:48;;;;;;;8.57;4.45;;;19.60;97.40;;;;;;5047202;22;20064;-55
2023/05/13 07:59:14;;;;;;;5.25;4.63;;;19.70;95.50;;;;;;5023674;28;20099;-51
2023/05/13 08:01:40;;;;;;;4.50;4.10;;;19.70;94.80;;;;;;5024108;28;20438;-53
2023/05/13 08:04:06;;;;;;;4.40;3.88;;;19.60;95.70;;;;;;5025372;28;20111;-51
2023/05/13 08:06:32;;;;;;;10.25;4.15;;;19.80;94.00;;;;;;5022635;28;20468;-53
2023/05/13 08:08:57;;;;;;;7.50;4.03;;;19.80;95.00;;;;;;5025457;28;20014;-54
2023/05/13 08:11:23;;;;;;;5.18;3.70;;;20.00;94.80;;;;;;5024550;28;20503;-51
2023/05/13 08:13:48;;;;;;;4.65;4.13;;;20.30;95.30;;;;;;5025424;28;20429;-50
2023/05/13 08:16:14;;;;;;;4.90;3.83;;;20.50;95.80;;;;;;5025273;28;20025;-54
2023/05/13 08:18:39;;;;;;;4.78;3.80;;;20.80;94.60;;;;;;5024364;28;20458;-49
2023/05/13 08:21:05;;;;;;;5.43;3.50;;;21.00;92.40;;;;;;5025353;28;20025;-53
2023/05/13 08:23:31;;;;;;;4.30;3.60;;;21.00;91.60;;;;;;5027791;28;20029;-49
2023/05/13 08:25:57;;;;;;;9.38;4.75;;;21.20;91.80;;;;;;5029130;28;20029;-49
2023/05/13 08:28:23;;;;;;;6.35;4.30;;;21.10;91.30;;;;;;5029023;28;20024;-52
2023/05/13 08:30:48;;;;;;;5.85;3.58;;;21.00;91.80;;;;;;5028242;28;20524;-54
2023/05/13 08:33:14;;;;;;;5.68;4.03;;;21.00;91.80;;;;;;5028937;28;20032;-55
2023/05/13 08:35:40;;;;;;;5.20;4.00;;;21.00;91.90;;;;;;5028516;28;20025;-50
2023/05/13 08:38:05;;;;;;;5.18;3.42;;;21.10;92.00;;;;;;5029066;28;20097;-50
2023/05/13 08:40:31;;;;;;;5.85;3.95;;;21.10;93.10;;;;;;5029195;28;20032;-53
2023/05/13 08:43:01;;;;;;;3.42;3.13;;;21.40;90.30;;;;;;5028880;28;20088;-56
2023/05/13 08:45:30;;;;;;;4.50;3.25;;;21.30;90.40;;;;;;5028995;28;20032;-53
2023/05/13 08:48:00;;;;;;;7.15;3.65;;;21.60;90.10;;;;;;5028773;28;20064;-54
2023/05/13 08:50:29;;;;;;;4.45;3.50;;;21.50;90.30;;;;;;5028609;28;20091;-51
2023/05/13 08:52:57;;;;;;;6.43;4.00;;;21.60;90.70;;;;;;5028451;28;20499;-53
2023/05/13 08:55:23;;;;;;;4.55;3.33;;;21.40;87.80;;;;;;5028796;28;20044;-51
2023/05/13 08:57:49;;;;;;;7.15;3.83;;;21.40;86.20;;;;;;5028193;28;20033;-53
2023/05/13 09:00:15;;;;;;;6.22;3.30;;;21.30;86.70;;;;;;5027722;28;20033;-54
2023/05/13 09:02:41;;;;;;;5.03;3.17;;;21.20;87.80;;;;;;5028379;28;20109;-54
2023/05/13 09:05:08;;;;;;;4.32;3.00;;;21.40;88.90;;;;;;5028315;28;20371;-56
2023/05/13 09:07:35;;;;;;;4.15;3.45;;;21.60;86.60;;;;;;5027911;28;20790;-55
2023/05/13 09:10:01;;;;;;;7.40;3.03;;;21.60;87.80;;;;;;5026709;28;20032;-54
2023/05/13 09:12:46;;;;;;;4.32;3.03;;;21.80;88.50;;;;;;5028299;28;20033;-54
2023/05/13 09:15:14;;;;;;;3.78;2.83;;;22.00;85.00;;;;;;5025847;28;20095;-54
2023/05/13 09:17:44;;;;;;;6.38;3.67;;;22.20;85.60;;;;;;5028140;28;20025;-53
2023/05/13 09:20:11;;;;;;;3.55;3.25;;;22.30;86.20;;;;;;5028331;28;20068;-55
2023/05/13 09:22:46;;;;;;;6.00;3.30;;;22.30;87.70;;;;;;5028055;28;20243;-55
2023/05/13 09:25:13;;;;;;;3.72;3.08;;;22.40;84.50;;;;;;5025479;28;20439;-54
2023/05/13 09:27:42;;;;;;;3.70;2.95;;;22.50;83.20;;;;;;5027794;28;20029;-56
2023/05/13 09:30:10;;;;;;;6.47;3.25;;;22.40;80.20;;;;;;5026702;28;20452;-54
2023/05/13 09:32:36;;;;;;;4.95;3.55;;;22.30;81.70;;;;;;5027452;28;20033;-49
2023/05/13 09:35:15;;;;;;;6.10;3.75;;;22.20;80.10;;;;;;5026526;28;20086;-51
2023/05/13 09:37:46;;;;;;;4.93;3.28;;;22.20;81.60;;;;;;5027414;28;20248;-50
2023/05/13 09:40:16;;;;;;;6.10;3.05;;;22.10;81.60;;;;;;5024765;28;20030;-51
2023/05/13 09:42:43;;;;;;;5.93;3.30;;;22.00;80.40;;;;;;5028345;28;20384;-51
2023/05/13 09:45:11;;;;;;;3.33;2.85;;;22.00;85.00;;;;;;5027766;28;20033;-53
2023/05/13 09:47:37;;;;;;;5.35;2.60;;;22.10;80.10;;;;;;5027724;28;20033;-50
2023/05/13 09:50:04;;;;;;;3.30;3.00;;;22.10;79.70;;;;;;5026229;28;20029;-52
2023/05/13 09:52:31;;;;;;;4.85;3.13;;;22.10;81.90;;;;;;5027619;28;20040;-53
2023/05/13 09:55:03;;;;;;;2.92;2.55;;;22.20;82.00;;;;;;5025909;28;20534;-54
2023/05/13 09:57:29;;;;;;;5.15;3.00;;;22.20;82.10;;;;;;5027209;28;20179;-53
2023/05/13 09:59:59;;;;;;;4.97;3.33;;;22.40;82.20;;;;;;5026872;28;20021;-50
2023/05/13 10:02:27;;;;;;;4.53;2.80;;;22.40;81.60;;;;;;5024595;28;20261;-51
2023/05/13 10:04:54;;;;;;;4.05;2.67;;;22.30;78.30;;;;;;5027586;28;20170;-51
2023/05/13 10:07:23;;;;;;;2.97;2.75;;;22.20;80.30;;;;;;5026970;28;20028;-55
2023/05/13 10:09:52;;;;;;;3.00;2.70;;;22.20;80.00;;;;;;5027296;28;20026;-55
2023/05/13 10:12:23;;;;;;;4.55;3.30;;;22.30;80.70;;;;;;5022474;28;20519;-55
2023/05/13 10:14:50;;;;;;;3.33;2.90;;;22.30;80.00;;;;;;5026373;28;20048;-52
2023/05/13 10:17:18;;;;;;;4.03;2.97;;;22.20;78.20;;;;;;5027504;28;20111;-51
2023/05/13 10:19:45;;;;;;;4.03;3.00;;;22.20;78.10;;;;;;5027062;28;20102;-54
2023/05/13 10:22:13;;;;;;;6.13;3.22;;;22.20;78.90;;;;;;5022988;28;20033;-53
2023/05/13 10:24:39;;;;;;;4.68;3.17;;;22.20;77.10;;;;;;5027058;28;20315;-54
2023/05/13 10:27:06;;;;;;;4.65;2.90;;;22.10;77.40;;;;;;5026932;28;20025;-50
2023/05/13 10:29:33;;;;;;;5.53;3.10;;;22.00;77.40;;;;;;5023514;28;20117;-54
2023/05/13 10:31:59;;;;;;;4.93;2.75;;;21.90;79.60;;;;;;5026466;28;20052;-50
2023/05/13 10:34:26;;;;;;;4.72;2.70;;;21.90;79.60;;;;;;5024744;28;20532;-53
2023/05/13 10:37:07;;;;;;;3.47;2.67;;;21.90;80.90;;;;;;5026523;28;20122;-55
2023/05/13 10:40:00;;;;;;;3.20;2.88;;;22.00;82.10;;;;;;5023946;28;20538;-50
2023/05/13 10:42:45;;;;;;;3.25;2.95;;;22.10;80.20;;;;;;5025728;28;20125;-51
2023/05/13 10:45:11;;;;;;;3.50;3.10;;;22.10;78.10;;;;;;5020214;28;20025;-49
2023/05/13 10:47:37;;;;;;;2.83;2.63;;;22.10;81.20;;;;;;5026551;28;20391;-52
2023/05/13 10:50:27;;;;;;;4.93;3.40;;;22.10;79.80;;;;;;5026470;28;20029;-50
2023/05/13 10:52:57;;;;;;;3.15;2.85;;;22.10;79.60;;;;;;5026160;28;20072;-53
2023/05/13 10:55:26;;;;;;;5.70;3.20;;;22.20;80.80;;;;;;5026764;28;20049;-55
2023/05/13 10:58:03;;;;;;;4.22;3.90;;;22.20;78.50;;;;;;5025849;28;20033;-56
2023/05/13 11:00:30;;;;;;;4.00;3.00;;;22.30;78.10;;;;;;5021133;28;20053;-53
2023/05/13 11:02:56;;;;;;;4.78;2.53;;;22.20;77.30;;;;;;5026553;28;20056;-51
2023/05/13 11:05:21;;;;;;;2.97;2.55;;;22.20;76.60;;;;;;5026524;28;20060;-54
2023/05/13 11:07:56;;;;;;;6.15;3.17;;;22.30;75.30;;;;;;5025759;28;20108;-53
2023/05/13 11:10:31;;;;;;;3.45;2.60;;;22.40;76.60;;;;;;5005897;28;20104;-52
2023/05/13 11:13:14;;;;;;;4.22;2.70;;;22.40;74.80;;;;;;5026351;28;20029;-50
2023/05/13 11:15:44;;;;;;;4.28;2.28;;;22.60;74.10;;;;;;5023785;28;20024;-51
2023/05/13 11:18:11;;;;;;;4.63;2.88;;;22.60;73.70;;;;;;5026398;28;20036;-53
2023/05/13 11:20:37;;;;;;;6.97;3.15;;;22.70;74.20;;;;;;5025857;28;20307;-51
2023/05/13 11:23:03;;;;;;;4.68;3.38;;;22.70;73.70;;;;;;5026159;28;20096;-54
2023/05/13 11:25:28;;;;;;;5.10;2.92;;;22.70;75.10;;;;;;5026609;28;20113;-51
2023/05/13 11:27:54;;;;;;;5.60;3.00;;;22.80;75.20;;;;;;5025712;28;20395;-52
2023/05/13 11:30:23;;;;;;;6.15;2.88;;;22.90;74.10;;;;;;5025216;28;20041;-54
2023/05/13 11:32:56;;;;;;;4.50;2.70;;;22.90;73.80;;;;;;5025880;28;20021;-52
2023/05/13 11:35:30;;;;;;;2.95;2.60;;;22.90;74.20;;;;;;5026500;28;20028;-54
2023/05/13 11:38:01;;;;;;;6.18;3.28;;;23.00;74.40;;;;;;5025397;28;20056;-56
2023/05/13 11:40:32;;;;;;;4.97;2.90;;;23.00;74.70;;;;;;5026392;28;20423;-53
2023/05/13 11:42:58;;;;;;;3.65;2.92;;;23.10;74.50;;;;;;5025532;28;20274;-55
2023/05/13 11:45:24;;;;;;;3.13;2.80;;;23.20;74.50;;;;;;5025802;28;20036;-57
2023/05/13 11:47:54;;;;;;;3.47;2.67;;;23.30;73.70;;;;;;5025036;28;20044;-54
2023/05/13 11:50:23;;;;;;;3.13;2.78;;;23.40;72.60;;;;;;5025662;28;20391;-55
2023/05/13 11:52:52;;;;;;;3.08;2.88;;;23.40;73.70;;;;;;5020185;28;20281;-57
2023/05/13 11:55:29;;;;;;;3.38;3.08;;;23.20;73.20;;;;;;5013658;28;20040;-55
2023/05/13 11:57:56;;;;;;;3.50;2.97;;;23.00;72.20;;;;;;5024617;28;20044;-57
2023/05/13 12:00:27;;;;;;;3.90;3.15;;;22.90;73.00;;;;;;5025113;28;20096;-53
2023/05/13 12:02:53;;;;;;;4.75;3.17;;;22.80;71.70;;;;;;5025277;28;20037;-55
2023/05/13 12:05:19;;;;;;;3.75;2.85;;;22.90;72.50;;;;;;5018400;28;20485;-52
2023/05/13 12:07:45;;;;;;;3.17;2.80;;;22.90;70.30;;;;;;5025268;28;20034;-54
2023/05/13 12:10:10;;;;;;;2.97;2.78;;;22.80;71.30;;;;;;5025291;28;20034;-53
2023/05/13 12:12:42;;;;;;;4.78;2.97;;;22.70;70.80;;;;;;5025634;28;20051;-53
2023/05/13 12:15:13;;;;;;;3.45;2.58;;;22.50;70.50;;;;;;5021870;28;20033;-55
2023/05/13 12:17:39;;;;;;;2.92;2.45;;;22.40;71.00;;;;;;5025380;28;20026;-54
2023/05/13 12:20:12;;;;;;;2.55;2.35;;;22.30;71.50;;;;;;5024120;28;20029;-54
2023/05/13 12:22:43;;;;;;;2.85;2.65;;;22.30;71.40;;;;;;5024887;28;20026;-53
2023/05/13 12:25:34;;;;;;;5.07;2.70;;;22.40;72.40;;;;;;5008396;28;20052;-55
2023/05/13 12:28:06;;;;;;;5.18;2.78;;;22.40;69.00;;;;;;5025488;28;20072;-56
2023/05/13 12:30:36;;;;;;;3.58;2.00;;;22.40;67.50;;;;;;5024816;28;20112;-54
2023/05/13 12:33:03;;;;;;;4.20;2.42;;;22.40;68.30;;;;;;5023720;28;20439;-53
2023/05/13 12:35:30;;;;;;;3.00;2.15;;;22.40;67.70;;;;;;5025189;28;20484;-56
2023/05/13 12:38:03;;;;;;;4.38;2.97;;;22.40;65.60;;;;;;5025115;28;20014;-55
2023/05/13 12:40:30;;;;;;;4.32;2.17;;;22.30;66.30;;;;;;5007204;28;20029;-53
2023/05/13 12:43:00;;;;;;;2.60;2.28;;;22.40;66.80;;;;;;5023934;28;20053;-54
2023/05/13 12:45:29;;;;;;;3.58;2.22;;;22.50;68.30;;;;;;5025209;28;20032;-56